Latest Weather Observations for Longerenong

IDV60801

Issued at 8:32 pm EDT Thursday 21 February 2019 (issued every 10 minutes, with the page automatically refreshed every 10 minutes)

About weather observations | Map of weather stations | Latest weather observations for VIC | Other Formats
Station Details ID: 079028 Name: LONGERENONG Lat: -36.67 Lon: 142.30 Height: 133.0 m
Data from the previous 72 hours. | See also: Recent months at Longerenong
Date/Time
EDT
Temp
°C
App
Temp
°C
Dew
Point
°C
Rel
Hum
%
Delta-T
°C
Wind Press
QNH
hPa
Press
MSL
hPa
Rain since
9am
mm
Dir  Spd
km/h
Gust
km/h
Spd
kts
Gust
kts
21/08:30pm 21.7 16.6 7.5 40 7.4 SE 24 33 13 18 - - 0.0
21/08:00pm 23.1 18.3 7.2 36 8.3 SE 22 28 12 15 - - 0.0
21/07:30pm 24.6 19.8 7.3 33 9.1 SE 22 30 12 16 - - 0.0
21/07:00pm 26.1 21.7 7.2 30 10.0 SE 20 30 11 16 - - 0.0
21/06:30pm 26.4 22.6 7.4 30 10.1 SE 17 26 9 14 - - 0.0
21/06:00pm 26.6 23.8 7.1 29 10.4 SSE 11 24 6 13 - - 0.0
21/05:30pm 26.8 22.7 6.2 27 10.8 S 17 26 9 14 - - 0.0
21/05:00pm 26.8 24.0 6.8 28 10.6 SSE 11 19 6 10 - - 0.0
21/04:30pm 26.8 24.4 6.8 28 10.6 SW 9 24 5 13 - - 0.0
21/04:00pm 26.5 24.0 6.5 28 10.5 SSE 9 19 5 10 - - 0.0
21/03:30pm 25.5 22.2 6.2 29 10.0 S 13 28 7 15 - - 0.0
21/03:00pm 25.2 21.9 6.4 30 9.8 SSE 13 20 7 11 - - 0.0
21/02:30pm 23.8 20.9 6.6 33 8.9 SSE 11 28 6 15 - - 0.0
21/02:00pm 23.4 21.1 7.5 36 8.4 S 9 20 5 11 - - 0.0
21/01:30pm 22.4 20.4 7.0 37 8.0 SSE 7 13 4 7 - - 0.0
21/01:00pm 22.2 19.3 8.0 40 7.5 S 13 26 7 14 - - 0.0
21/12:30pm 20.5 16.9 8.2 45 6.4 S 17 30 9 16 - - 0.0
21/12:00pm 19.9 17.4 8.3 47 6.1 SSE 11 22 6 12 - - 0.0
21/11:30am 18.5 15.2 7.9 50 5.5 S 15 24 8 13 - - 0.0
21/11:00am 18.2 14.9 8.2 52 5.2 S 15 22 8 12 - - 0.0
21/10:30am 17.1 13.8 8.0 55 4.6 S 15 20 8 11 - - 0.0
21/10:00am 16.8 13.2 8.5 58 4.3 S 17 26 9 14 - - 0.0
21/09:30am 15.2 12.4 8.4 64 3.5 SSW 13 19 7 10 - - 0.0
21/09:00am 14.2 11.6 9.2 72 2.6 SSW 13 17 7 9 - - 0.0
21/08:30am 12.1 10.5 10.2 88 1.0 SSW 9 13 5 7 - - 0.0
21/08:00am 10.3 9.0 9.2 93 0.5 SSW 6 6 3 3 - - 0.0
21/07:30am 9.1 7.0 8.2 94 0.4 SW 9 11 5 6 - - 0.0
21/07:00am 8.9 6.7 7.8 93 0.5 SW 9 9 5 5 - - 0.0
21/06:30am 8.9 7.0 7.7 92 0.6 SW 7 9 4 5 - - 0.0
21/06:00am 8.9 6.6 7.4 90 0.7 SSW 9 9 5 5 - - 0.0
21/05:30am 9.7 7.2 8.0 89 0.8 SSW 11 13 6 7 - - 0.0
21/05:00am 9.7 7.9 8.1 90 0.8 SSW 7 11 4 6 - - 0.0
21/04:30am 10.1 8.5 8.2 88 0.9 SSW 6 7 3 4 - - 0.0
21/04:00am 10.7 8.7 8.5 86 1.1 SSW 9 11 5 6 - - 0.0
21/03:30am 11.0 8.6 8.6 85 1.2 SSW 11 13 6 7 - - 0.0
21/03:00am 12.1 9.9 9.3 83 1.4 SSW 11 13 6 7 - - 0.0
21/02:30am 12.9 9.9 9.2 78 1.9 SSW 15 19 8 10 - - 0.0
21/02:00am 13.0 10.4 9.3 78 1.9 SSW 13 17 7 9 - - 0.0
21/01:30am 13.5 10.9 9.2 75 2.2 SSW 13 17 7 9 - - 0.0
21/01:00am 13.6 10.9 9.1 74 2.3 S 13 17 7 9 - - 0.0
21/12:30am 14.7 11.3 9.3 70 2.8 SSW 17 22 9 12 - - 0.0
21/12:00am 15.2 11.8 9.3 68 3.1 SSW 17 20 9 11 - - 0.0
 
Date/Time
EDT
Temp
°C
App
Temp
°C
Dew
Point
°C
Rel
Hum
%
Delta-T
°C
Wind Press
QNH
hPa
Press
MSL
hPa
Rain since
9am
mm
Dir  Spd
km/h
Gust
km/h
Spd
kts
Gust
kts
20/11:30pm 15.7 12.0 9.6 67 3.2 SSW 19 24 10 13 - - 0.0
20/11:00pm 16.8 13.2 8.5 58 4.3 SSW 17 26 9 14 - - 0.0
20/10:30pm 17.3 13.9 7.6 53 4.9 SSW 15 20 8 11 - - 0.0
20/10:00pm 18.4 14.1 7.8 50 5.4 SW 20 30 11 16 - - 0.0
20/09:30pm 18.9 15.3 8.3 50 5.5 SW 17 24 9 13 - - 0.0
20/09:00pm 19.7 16.4 8.1 47 6.0 SW 15 20 8 11 - - 0.0
20/08:30pm 20.6 16.8 8.9 47 6.2 SW 19 30 10 16 - - 0.0
20/08:00pm 21.7 16.7 9.6 46 6.5 SSW 26 33 14 18 - - 0.0
20/07:30pm 22.9 17.7 9.0 41 7.5 SSW 26 33 14 18 - - 0.0
20/07:00pm 24.2 19.6 8.2 36 8.6 SSW 22 37 12 20 - - 0.0
20/06:30pm 24.4 18.6 8.0 35 8.8 SSW 28 35 15 19 - - 0.0
20/06:00pm 24.7 18.6 8.2 35 8.9 SSW 30 41 16 22 - - 0.0
20/05:30pm 25.0 19.7 8.5 35 8.9 SW 26 37 14 20 - - 0.0
20/05:00pm 24.9 19.6 8.4 35 8.9 SW 26 35 14 19 - - 0.0
20/04:30pm 25.2 20.1 9.1 36 8.8 SW 26 37 14 20 - - 0.0
20/04:00pm 26.5 22.8 9.4 34 9.5 SW 19 37 10 20 - - 0.0
20/03:30pm 25.9 22.0 9.3 35 9.1 SW 20 35 11 19 - - 0.0
20/03:00pm 24.2 19.5 7.8 35 8.7 WSW 22 33 12 18 - - 0.0
20/02:30pm 23.4 19.1 7.9 37 8.2 SW 20 33 11 18 - - 0.0
20/02:00pm 22.7 18.1 8.0 39 7.8 SW 22 35 12 19 - - 0.0
20/01:30pm 21.7 17.2 8.6 43 7.0 SW 22 32 12 17 - - 0.0
20/01:00pm 21.1 16.7 9.0 46 6.5 WSW 22 39 12 21 - - 0.0
20/12:30pm 21.3 17.0 9.5 47 6.4 WSW 22 41 12 22 - - 0.0
20/12:00pm 20.2 15.8 8.8 48 6.0 WSW 22 32 12 17 - - 0.0
20/11:30am 18.6 13.7 8.3 51 5.3 WSW 24 33 13 18 - - 0.0
20/11:00am 18.3 14.2 8.8 54 5.0 WSW 20 30 11 16 - - 0.0
20/10:30am 17.7 13.1 8.3 54 4.8 WSW 22 32 12 17 - - 0.0
20/10:00am 17.1 13.4 8.0 55 4.6 WSW 17 26 9 14 - - 0.0
20/09:30am 15.9 13.3 7.7 58 4.1 WSW 11 17 6 9 - - 0.0
20/09:00am 13.7 12.3 7.2 65 3.2 W 4 7 2 4 - - 0.0
20/08:30am 11.8 10.8 7.3 74 2.2 WNW 2 4 1 2 - - 0.0
20/08:00am 9.3 8.5 6.4 82 1.4 CALM 0 6 0 3 - - 0.0
20/07:30am 7.5 5.6 4.8 83 1.2 W 4 6 2 3 - - 0.0
20/07:00am 7.3 4.9 4.4 82 1.3 W 6 6 3 3 - - 0.0
20/06:30am 7.2 4.8 4.2 81 1.3 W 6 7 3 4 - - 0.0
20/06:00am 6.9 4.4 3.9 81 1.3 WSW 6 6 3 3 - - 0.0
20/05:30am 6.7 4.5 3.3 79 1.4 WSW 4 4 2 2 - - 0.0
20/05:00am 8.8 7.0 5.2 78 1.6 WSW 4 4 2 2 - - 0.0
20/04:30am 8.8 6.5 4.8 76 1.8 WSW 6 7 3 4 - - 0.0
20/04:00am 9.1 7.3 5.3 77 1.7 WSW 4 6 2 3 - - 0.0
20/03:30am 9.2 6.9 5.0 75 1.9 SW 6 6 3 3 - - 0.0
20/03:00am 9.7 7.8 4.9 72 2.2 SW 4 4 2 2 - - 0.0
20/02:30am 10.1 7.8 4.7 69 2.4 SSW 6 7 3 4 - - 0.0
20/02:00am 10.7 7.9 5.0 68 2.6 SSW 9 9 5 5 - - 0.0
20/01:30am 11.3 8.5 5.2 66 2.8 SSW 9 9 5 5 - - 0.0
20/01:00am 12.6 9.4 5.3 61 3.4 SSW 11 13 6 7 - - 0.0
20/12:30am 13.9 10.4 5.5 57 4.0 SSW 13 19 7 10 - - 0.0
20/12:00am 14.8 10.5 5.3 53 4.5 SW 17 22 9 12 - - 0.0
 
Date/Time
EDT
Temp
°C
App
Temp
°C
Dew
Point
°C
Rel
Hum
%
Delta-T
°C
Wind Press
QNH
hPa
Press
MSL
hPa
Rain since
9am
mm
Dir  Spd
km/h
Gust
km/h
Spd
kts
Gust
kts
19/11:30pm 15.2 11.7 5.4 52 4.7 SSW 13 19 7 10 - - 0.0
19/11:00pm 16.0 11.4 5.6 50 5.0 SW 19 24 10 13 - - 0.0
19/10:30pm 16.6 12.8 5.9 49 5.2 SSW 15 20 8 11 - - 0.0
19/10:00pm 17.1 13.3 5.7 47 5.6 SSW 15 19 8 10 - - 0.0
19/09:30pm 18.2 13.9 5.4 43 6.3 SSW 17 20 9 11 - - 0.0
19/09:00pm 18.2 14.9 4.4 40 6.6 SSW 11 13 6 7 - - 0.0
19/08:30pm 19.5 15.8 4.4 37 7.3 SSW 13 19 7 10 - - 0.0
19/08:00pm 20.6 16.5 4.6 35 7.8 SSW 15 22 8 12 - - 0.0
19/07:30pm 21.6 16.9 5.1 34 8.2 SSW 19 24 10 13 - - 0.0
19/07:00pm 22.2 17.5 5.2 33 8.5 SSW 19 26 10 14 - - 0.0
19/06:30pm 22.9 18.0 5.3 32 8.9 SW 20 33 11 18 - - 0.0
19/06:00pm 23.0 18.1 5.0 31 9.0 WSW 20 30 11 16 - - 0.0
19/05:30pm 23.4 18.1 4.9 30 9.3 SW 22 35 12 19 - - 0.0
19/05:00pm 22.9 17.5 4.4 30 9.2 SW 22 30 12 16 - - 0.0
19/04:30pm 23.2 17.7 4.2 29 9.4 SW 22 33 12 18 - - 0.0
19/04:00pm 23.0 17.6 4.5 30 9.2 WSW 22 30 12 16 - - 0.0
19/03:30pm 22.6 16.8 4.6 31 8.9 SSW 24 37 13 20 - - 0.0
19/03:00pm 22.5 17.8 5.0 32 8.7 SW 19 32 10 17 - - 0.0
19/02:30pm 22.3 16.5 4.4 31 8.8 SW 24 37 13 20 - - 0.0
19/02:00pm 22.2 16.9 5.2 33 8.5 SSW 22 35 12 19 - - 0.0
19/01:30pm 21.4 16.4 4.5 33 8.3 SSW 20 32 11 17 - - 0.0
19/01:00pm 20.1 15.2 4.2 35 7.7 SW 19 32 10 17 - - 0.0
19/12:30pm 20.5 15.6 4.9 36 7.7 SW 20 30 11 16 - - 0.0
19/12:00pm 19.5 14.8 5.9 41 6.8 SW 20 30 11 16 - - 0.0
19/11:30am - - - - - SSW 19 28 10 15 - - 0.0
19/11:00am 18.2 12.7 5.8 44 6.1 SW 24 35 13 19 - - 0.0
19/10:30am 18.1 13.3 5.7 44 6.1 SSW 20 28 11 15 - - 0.0
19/10:00am 16.1 12.2 7.1 55 4.5 SW 17 24 9 13 - - 0.0
19/09:30am 15.6 12.8 8.4 62 3.7 WSW 13 20 7 11 - - 0.0
19/09:00am 14.8 12.8 8.5 66 3.2 WSW 9 19 5 10 - - 0.0
19/08:30am 12.4 10.6 7.9 74 2.2 WSW 7 9 4 5 - - 0.0
19/08:00am 10.2 8.6 8.1 87 1.0 WNW 6 6 3 3 - - 0.0
19/07:30am - - - - - W 2 9 1 5 - - 0.0
19/07:00am 7.0 4.2 5.2 88 0.8 W 9 11 5 6 - - 0.0
19/06:30am 8.0 7.1 6.0 87 0.9 CALM 0 0 0 0 - - 0.0
19/06:00am 7.7 6.6 5.3 85 1.1 CALM 0 0 0 0 - - 0.0
19/05:30am 7.4 5.1 4.9 84 1.1 W 6 9 3 5 - - 0.0
19/05:00am 8.8 6.8 6.1 83 1.2 SW 6 9 3 5 - - 0.0
19/04:30am 9.0 6.9 5.9 81 1.4 WSW 6 7 3 4 - - 0.0
19/04:00am 9.2 7.0 5.2 76 1.8 WSW 6 7 3 4 - - 0.0
19/03:30am 10.2 7.5 5.8 74 2.0 WSW 9 9 5 5 - - 0.0
19/03:00am 11.1 9.0 6.5 73 2.2 SW 7 13 4 7 - - 0.0
19/02:30am 11.6 8.7 6.7 72 2.3 SW 11 15 6 8 - - 0.0
19/02:00am 11.9 9.4 6.6 70 2.5 SW 9 13 5 7 - - 0.0
19/01:30am 12.5 9.7 6.8 68 2.7 SW 11 13 6 7 - - 0.0
19/01:00am 13.4 9.9 7.2 66 3.0 SSW 15 22 8 12 - - 0.0
19/12:30am 13.8 10.3 7.1 64 3.3 SSW 15 19 8 10 - - 0.0
19/12:00am 14.4 10.5 7.0 61 3.6 SW 17 22 9 12 - - 0.0
 
Date/Time
EDT
Temp
°C
App
Temp
°C
Dew
Point
°C
Rel
Hum
%
Delta-T
°C
Wind Press
QNH
hPa
Press
MSL
hPa
Rain since
9am
mm
Dir  Spd
km/h
Gust
km/h
Spd
kts
Gust
kts
18/11:30pm 14.6 11.3 6.4 58 4.0 SW 13 17 7 9 - - 0.0
18/11:00pm 15.3 11.7 6.8 57 4.2 SSW 15 20 8 11 - - 0.0
18/10:30pm 16.2 11.6 6.6 53 4.7 SSW 20 28 11 15 - - 0.0
18/10:00pm 17.0 11.8 7.1 52 5.0 SSW 24 35 13 19 - - 0.0
18/09:30pm 17.7 12.8 6.9 49 5.4 SSW 22 28 12 15 - - 0.0
18/09:00pm 18.6 12.8 6.4 45 6.1 SW 26 39 14 21 - - 0.0

Other formats

Comma delimited format used in spreadsheet applications
http://www.bom.gov.au/fwo/IDV60801/IDV60801.95835.axf

JavaScript Object Notation format (JSON) in row-major order
http://www.bom.gov.au/fwo/IDV60801/IDV60801.95835.json

Data quality

Most of these data are generated automatically and are frequently updated. Quality checks on data are not normally performed. It is possible for incorrect values to appear. Refer to information at About Latest Weather Observations and please check the disclaimer before using these data.